Accueil
METAR-TAF:

METAR-TAF

Aéroports :

Santa Maria di Leuca

Castrignano del Capo, Italie

latitude: 39-49N, longitude: 018-21E, altitude: 104 m

Observation

Le bulletin a été fait il y a 1 heure et 3 minutes, à 14:55 UTC
Vent 5 kt de sud/sud-est, variant entre sud-est et sud/sud-ouest
Température 23°C
Humidité 65%
Pression 1015 hPa
Visibilité 10 km ou plus
Nuages épars à une hauteur de 1600 ft

METAR: LIBY 141455Z 16005KT 130V200 9999 SCT016 23/16 Q1015 RMK SCT QUK 1 QUL 1 SW VIS MAR 30 KM VIS MAX 30 KM VIS MIN 9999

Heure: 17:58 (15:58 UTC)


TAF: absent

Observations et prévisions météorologiques de plus de 4000 aéroports (messages METAR et TAF).

Les stations disponibles sont représentées par des disques jaunes et rouges sur la carte.

Passer la souris dessus pour voir le nom de la station.

Cliquer dessus pour voir les observations et prévisions météorologiques.

Pour changer de carte: cliquez sur les boutons verts avec une croix noire pour zoomer, sur le bouton vert avec un tiret pour effectuer un zoom arrière, ou sur les flèches vertes pour les cartes adjacentes.


METAR-TAF: